sensor_id;sensor_type;location;lat;lon;timestamp;pressure;altitude;pressure_sealevel;temperature;humidity
18509;BME280;9383;50.928;12.116;2023-01-25T00:02:10;100812.41;;;0.08;100.00
18509;BME280;9383;50.928;12.116;2023-01-25T00:04:37;100815.84;;;0.07;100.00
18509;BME280;9383;50.928;12.116;2023-01-25T00:07:03;100818.44;;;0.07;100.00
18509;BME280;9383;50.928;12.116;2023-01-25T00:09:30;100806.22;;;0.06;100.00
18509;BME280;9383;50.928;12.116;2023-01-25T00:11:56;100813.16;;;0.05;100.00
18509;BME280;9383;50.928;12.116;2023-01-25T00:14:23;100812.22;;;0.03;100.00
18509;BME280;9383;50.928;12.116;2023-01-25T00:16:50;100815.69;;;0.04;100.00
18509;BME280;9383;50.928;12.116;2023-01-25T00:19:17;100820.09;;;0.05;100.00
18509;BME280;9383;50.928;12.116;2023-01-25T00:21:44;100810.56;;;0.05;100.00
18509;BME280;9383;50.928;12.116;2023-01-25T00:24:10;100813.09;;;0.04;100.00
18509;BME280;9383;50.928;12.116;2023-01-25T00:26:37;100816.59;;;0.04;100.00
18509;BME280;9383;50.928;12.116;2023-01-25T00:29:04;100807.88;;;0.04;100.00
18509;BME280;9383;50.928;12.116;2023-01-25T00:34:45;100802.63;;;0.02;100.00
18509;BME280;9383;50.928;12.116;2023-01-25T00:37:18;100805.22;;;0.02;100.00
18509;BME280;9383;50.928;12.116;2023-01-25T00:39:46;100806.09;;;0.03;100.00
18509;BME280;9383;50.928;12.116;2023-01-25T00:42:14;100805.22;;;0.02;100.00
18509;BME280;9383;50.928;12.116;2023-01-25T00:44:41;100804.28;;;0.00;100.00
18509;BME280;9383;50.928;12.116;2023-01-25T00:47:09;100803.28;;;-0.04;100.00
18509;BME280;9383;50.928;12.116;2023-01-25T00:49:37;100797.91;;;-0.07;100.00
18509;BME280;9383;50.928;12.116;2023-01-25T00:52:04;100807.47;;;-0.07;100.00
18509;BME280;9383;50.928;12.116;2023-01-25T00:54:31;100807.47;;;-0.07;100.00
18509;BME280;9383;50.928;12.116;2023-01-25T00:56:57;100802.25;;;-0.07;100.00
18509;BME280;9383;50.928;12.116;2023-01-25T00:59:24;100810.00;;;-0.09;100.00
18509;BME280;9383;50.928;12.116;2023-01-25T01:01:52;100805.69;;;-0.08;100.00
18509;BME280;9383;50.928;12.116;2023-01-25T01:04:19;100806.53;;;-0.09;100.00
18509;BME280;9383;50.928;12.116;2023-01-25T01:06:45;100808.31;;;-0.08;100.00
18509;BME280;9383;50.928;12.116;2023-01-25T01:09:14;100802.19;;;-0.09;100.00
18509;BME280;9383;50.928;12.116;2023-01-25T01:11:41;100800.50;;;-0.08;100.00
18509;BME280;9383;50.928;12.116;2023-01-25T01:14:08;100803.94;;;-0.09;100.00
18509;BME280;9383;50.928;12.116;2023-01-25T01:16:35;100796.09;;;-0.09;100.00
18509;BME280;9383;50.928;12.116;2023-01-25T01:19:02;100795.94;;;-0.14;100.00
18509;BME280;9383;50.928;12.116;2023-01-25T01:21:28;100794.06;;;-0.17;100.00
18509;BME280;9383;50.928;12.116;2023-01-25T01:23:55;100790.53;;;-0.19;100.00
18509;BME280;9383;50.928;12.116;2023-01-25T01:26:23;100786.22;;;-0.18;100.00
18509;BME280;9383;50.928;12.116;2023-01-25T01:28:49;100790.53;;;-0.19;100.00
18509;BME280;9383;50.928;12.116;2023-01-25T01:31:22;100793.25;;;-0.16;100.00
18509;BME280;9383;50.928;12.116;2023-01-25T01:33:50;100798.47;;;-0.16;100.00
18509;BME280;9383;50.928;12.116;2023-01-25T01:36:18;100793.31;;;-0.14;100.00
18509;BME280;9383;50.928;12.116;2023-01-25T01:38:46;100791.59;;;-0.13;100.00
18509;BME280;9383;50.928;12.116;2023-01-25T01:41:13;100794.25;;;-0.12;100.00
18509;BME280;9383;50.928;12.116;2023-01-25T01:43:40;100791.66;;;-0.12;100.00
18509;BME280;9383;50.928;12.116;2023-01-25T01:46:29;100793.44;;;-0.11;100.00
18509;BME280;9383;50.928;12.116;2023-01-25T01:54:35;100780.47;;;-0.09;100.00
18509;BME280;9383;50.928;12.116;2023-01-25T01:57:20;100779.56;;;-0.10;100.00
18509;BME280;9383;50.928;12.116;2023-01-25T01:59:56;100773.41;;;-0.12;100.00
18509;BME280;9383;50.928;12.116;2023-01-25T02:02:25;100769.94;;;-0.12;100.00
18509;BME280;9383;50.928;12.116;2023-01-25T02:04:56;100767.31;;;-0.12;100.00
18509;BME280;9383;50.928;12.116;2023-01-25T02:07:33;100762.97;;;-0.12;100.00
18509;BME280;9383;50.928;12.116;2023-01-25T02:10:01;100756.88;;;-0.12;100.00
18509;BME280;9383;50.928;12.116;2023-01-25T02:12:27;100758.66;;;-0.11;100.00
18509;BME280;9383;50.928;12.116;2023-01-25T02:14:55;100763.88;;;-0.11;100.00
18509;BME280;9383;50.928;12.116;2023-01-25T02:17:26;100752.56;;;-0.12;100.00
18509;BME280;9383;50.928;12.116;2023-01-25T02:19:54;100751.69;;;-0.12;100.00
18509;BME280;9383;50.928;12.116;2023-01-25T02:22:29;100751.69;;;-0.12;100.00
18509;BME280;9383;50.928;12.116;2023-01-25T02:25:07;100745.56;;;-0.13;100.00
18509;BME280;9383;50.928;12.116;2023-01-25T02:27:37;100741.25;;;-0.12;100.00
18509;BME280;9383;50.928;12.116;2023-01-25T02:30:05;100739.44;;;-0.13;100.00
18509;BME280;9383;50.928;12.116;2023-01-25T02:32:33;100729.09;;;-0.12;100.00
18509;BME280;9383;50.928;12.116;2023-01-25T02:35:00;100724.78;;;-0.11;100.00
18509;BME280;9383;50.928;12.116;2023-01-25T02:37:26;100714.81;;;-0.22;100.00
18509;BME280;9383;50.928;12.116;2023-01-25T02:39:53;100711.28;;;-0.24;100.00
18509;BME280;9383;50.928;12.116;2023-01-25T02:42:19;100704.41;;;-0.22;100.00
18509;BME280;9383;50.928;12.116;2023-01-25T02:44:46;100712.25;;;-0.20;100.00
18509;BME280;9383;50.928;12.116;2023-01-25T02:47:14;100709.72;;;-0.19;100.00
18509;BME280;9383;50.928;12.116;2023-01-25T02:49:41;100697.63;;;-0.17;100.00
18509;BME280;9383;50.928;12.116;2023-01-25T02:52:07;100702.06;;;-0.14;100.00
18509;BME280;9383;50.928;12.116;2023-01-25T02:54:34;100705.63;;;-0.12;100.00
18509;BME280;9383;50.928;12.116;2023-01-25T02:57:00;100699.56;;;-0.11;100.00
18509;BME280;9383;50.928;12.116;2023-01-25T02:59:27;100697.91;;;-0.09;100.00
18509;BME280;9383;50.928;12.116;2023-01-25T03:01:53;100694.44;;;-0.09;100.00
18509;BME280;9383;50.928;12.116;2023-01-25T03:04:20;100693.53;;;-0.10;100.00
18509;BME280;9383;50.928;12.116;2023-01-25T03:06:46;100692.53;;;-0.13;100.00
18509;BME280;9383;50.928;12.116;2023-01-25T03:09:13;100692.47;;;-0.15;100.00
18509;BME280;9383;50.928;12.116;2023-01-25T03:11:39;100689.78;;;-0.18;100.00
18509;BME280;9383;50.928;12.116;2023-01-25T03:14:06;100681.06;;;-0.19;100.00
18509;BME280;9383;50.928;12.116;2023-01-25T03:16:32;100683.53;;;-0.22;100.00
18509;BME280;9383;50.928;12.116;2023-01-25T03:18:59;100688.78;;;-0.20;100.00
18509;BME280;9383;50.928;12.116;2023-01-25T03:21:25;100688.75;;;-0.22;100.00
18509;BME280;9383;50.928;12.116;2023-01-25T03:23:57;100687.00;;;-0.23;100.00
18509;BME280;9383;50.928;12.116;2023-01-25T03:26:25;100685.22;;;-0.24;100.00
18509;BME280;9383;50.928;12.116;2023-01-25T03:28:52;100682.44;;;-0.29;100.00
18509;BME280;9383;50.928;12.116;2023-01-25T03:31:19;100675.56;;;-0.26;100.00
18509;BME280;9383;50.928;12.116;2023-01-25T03:33:45;100679.88;;;-0.27;100.00
18509;BME280;9383;50.928;12.116;2023-01-25T03:36:12;100679.81;;;-0.29;100.00
18509;BME280;9383;50.928;12.116;2023-01-25T03:38:39;100665.97;;;-0.27;100.00
18509;BME280;9383;50.928;12.116;2023-01-25T03:41:05;100670.25;;;-0.30;100.00
18509;BME280;9383;50.928;12.116;2023-01-25T03:43:33;100661.59;;;-0.29;100.00
18509;BME280;9383;50.928;12.116;2023-01-25T03:46:00;100664.22;;;-0.27;100.00
18509;BME280;9383;50.928;12.116;2023-01-25T03:48:27;100655.56;;;-0.26;100.00
18509;BME280;9383;50.928;12.116;2023-01-25T03:50:56;100659.09;;;-0.25;100.00
18509;BME280;9383;50.928;12.116;2023-01-25T03:53:27;100659.16;;;-0.24;100.00
18509;BME280;9383;50.928;12.116;2023-01-25T03:56:05;100655.72;;;-0.23;100.00
18509;BME280;9383;50.928;12.116;2023-01-25T03:58:34;100655.72;;;-0.23;100.00
18509;BME280;9383;50.928;12.116;2023-01-25T04:01:02;100640.94;;;-0.22;100.00
18509;BME280;9383;50.928;12.116;2023-01-25T04:03:29;100644.44;;;-0.22;100.00
18509;BME280;9383;50.928;12.116;2023-01-25T04:05:57;100644.50;;;-0.20;100.00
18509;BME280;9383;50.928;12.116;2023-01-25T04:08:24;100649.69;;;-0.20;100.00
18509;BME280;9383;50.928;12.116;2023-01-25T04:11:15;100653.28;;;-0.18;100.00
18509;BME280;9383;50.928;12.116;2023-01-25T04:13:41;100648.09;;;-0.17;100.00
18509;BME280;9383;50.928;12.116;2023-01-25T04:16:09;100646.44;;;-0.15;100.00
18509;BME280;9383;50.928;12.116;2023-01-25T04:18:37;100644.72;;;-0.14;100.00
18509;BME280;9383;50.928;12.116;2023-01-25T04:21:04;100637.84;;;-0.12;100.00
18509;BME280;9383;50.928;12.116;2023-01-25T04:23:30;100630.94;;;-0.11;100.00
18509;BME280;9383;50.928;12.116;2023-01-25T04:25:59;100634.41;;;-0.11;100.00
18509;BME280;9383;50.928;12.116;2023-01-25T04:28:27;100633.56;;;-0.10;100.00
18509;BME280;9383;50.928;12.116;2023-01-25T04:30:54;100636.13;;;-0.11;100.00
18509;BME280;9383;50.928;12.116;2023-01-25T04:33:21;100628.25;;;-0.13;100.00
18509;BME280;9383;50.928;12.116;2023-01-25T04:35:48;100638.59;;;-0.15;100.00
18509;BME280;9383;50.928;12.116;2023-01-25T04:38:14;100633.41;;;-0.15;100.00
18509;BME280;9383;50.928;12.116;2023-01-25T04:40:42;100635.81;;;-0.21;100.00
18509;BME280;9383;50.928;12.116;2023-01-25T04:43:10;100629.75;;;-0.20;100.00
18509;BME280;9383;50.928;12.116;2023-01-25T04:45:37;100633.19;;;-0.21;100.00
18509;BME280;9383;50.928;12.116;2023-01-25T04:48:06;100640.09;;;-0.21;100.00
18509;BME280;9383;50.928;12.116;2023-01-25T04:50:36;100640.94;;;-0.22;100.00
18509;BME280;9383;50.928;12.116;2023-01-25T04:53:03;100636.53;;;-0.25;100.00
18509;BME280;9383;50.928;12.116;2023-01-25T04:55:30;100632.94;;;-0.27;100.00
18509;BME280;9383;50.928;12.116;2023-01-25T04:57:56;100631.19;;;-0.28;100.00
18509;BME280;9383;50.928;12.116;2023-01-25T05:00:23;100625.09;;;-0.29;100.00
18509;BME280;9383;50.928;12.116;2023-01-25T05:02:49;100631.19;;;-0.28;100.00
18509;BME280;9383;50.928;12.116;2023-01-25T05:05:16;100619.91;;;-0.27;100.00
18509;BME280;9383;50.928;12.116;2023-01-25T05:07:42;100616.38;;;-0.29;100.00
18509;BME280;9383;50.928;12.116;2023-01-25T05:10:09;100625.09;;;-0.29;100.00
18509;BME280;9383;50.928;12.116;2023-01-25T05:12:36;100549.59;;;-0.76;100.00
18509;BME280;9383;50.928;12.116;2023-01-25T05:15:03;100623.25;;;-0.31;100.00
18509;BME280;9383;50.928;12.116;2023-01-25T05:17:30;100616.19;;;-0.34;100.00
18509;BME280;9383;50.928;12.116;2023-01-25T05:19:57;100619.59;;;-0.36;100.00
18509;BME280;9383;50.928;12.116;2023-01-25T05:22:24;100603.84;;;-0.39;100.00
18509;BME280;9383;50.928;12.116;2023-01-25T05:24:51;100602.91;;;-0.41;100.00
18509;BME280;9383;50.928;12.116;2023-01-25T05:27:19;100607.28;;;-0.40;100.00
18509;BME280;9383;50.928;12.116;2023-01-25T05:29:45;100616.75;;;-0.43;100.00
18509;BME280;9383;50.928;12.116;2023-01-25T05:32:14;100607.06;;;-0.47;100.00
18509;BME280;9383;50.928;12.116;2023-01-25T05:34:41;100613.22;;;-0.45;100.00
18509;BME280;9383;50.928;12.116;2023-01-25T05:37:09;100608.00;;;-0.45;100.00
18509;BME280;9383;50.928;12.116;2023-01-25T05:39:36;100614.06;;;-0.46;100.00
18509;BME280;9383;50.928;12.116;2023-01-25T05:42:07;100613.16;;;-0.46;100.00
18509;BME280;9383;50.928;12.116;2023-01-25T05:44:34;100611.34;;;-0.49;100.00
18509;BME280;9383;50.928;12.116;2023-01-25T05:47:01;100617.31;;;-0.51;100.00
18509;BME280;9383;50.928;12.116;2023-01-25T05:49:27;100618.19;;;-0.51;100.00
18509;BME280;9383;50.928;12.116;2023-01-25T05:51:54;100619.09;;;-0.50;100.00
18509;BME280;9383;50.928;12.116;2023-01-25T05:54:20;100625.97;;;-0.52;100.00
18509;BME280;9383;50.928;12.116;2023-01-25T05:56:48;100617.13;;;-0.56;100.00
18509;BME280;9383;50.928;12.116;2023-01-25T05:59:15;100620.66;;;-0.55;100.00
18509;BME280;9383;50.928;12.116;2023-01-25T06:01:43;100616.31;;;-0.55;100.00
18509;BME280;9383;50.928;12.116;2023-01-25T06:04:15;100610.34;;;-0.52;100.00
18509;BME280;9383;50.928;12.116;2023-01-25T06:06:42;100610.38;;;-0.51;100.00
18509;BME280;9383;50.928;12.116;2023-01-25T06:09:12;100608.66;;;-0.50;100.00
18509;BME280;9383;50.928;12.116;2023-01-25T06:11:39;100605.16;;;-0.51;100.00
18509;BME280;9383;50.928;12.116;2023-01-25T06:14:07;100595.63;;;-0.50;100.00
18509;BME280;9383;50.928;12.116;2023-01-25T06:16:34;100610.38;;;-0.51;100.00
18509;BME280;9383;50.928;12.116;2023-01-25T06:19:00;100610.38;;;-0.51;100.00
18509;BME280;9383;50.928;12.116;2023-01-25T06:21:27;100604.28;;;-0.51;100.00
18509;BME280;9383;50.928;12.116;2023-01-25T06:23:54;100604.28;;;-0.51;100.00
18509;BME280;9383;50.928;12.116;2023-01-25T06:26:20;100605.00;;;-0.55;100.00
18509;BME280;9383;50.928;12.116;2023-01-25T06:28:47;100605.00;;;-0.55;100.00
18509;BME280;9383;50.928;12.116;2023-01-25T06:31:16;100607.56;;;-0.57;100.00
18509;BME280;9383;50.928;12.116;2023-01-25T06:33:45;100610.16;;;-0.57;100.00
18509;BME280;9383;50.928;12.116;2023-01-25T06:36:14;100611.94;;;-0.56;100.00
18509;BME280;9383;50.928;12.116;2023-01-25T06:38:41;100612.00;;;-0.54;100.00
18509;BME280;9383;50.928;12.116;2023-01-25T06:41:10;100614.53;;;-0.56;100.00
18509;BME280;9383;50.928;12.116;2023-01-25T06:43:37;100620.28;;;-0.65;100.00
18509;BME280;9383;50.928;12.116;2023-01-25T06:46:06;100617.63;;;-0.66;100.00
18509;BME280;9383;50.928;12.116;2023-01-25T06:48:33;100605.59;;;-0.63;100.00
18509;BME280;9383;50.928;12.116;2023-01-25T06:51:03;100610.88;;;-0.61;100.00
18509;BME280;9383;50.928;12.116;2023-01-25T06:53:31;100606.63;;;-0.59;100.00
18509;BME280;9383;50.928;12.116;2023-01-25T06:55:59;100606.63;;;-0.59;100.00
18509;BME280;9383;50.928;12.116;2023-01-25T06:58:27;100606.66;;;-0.58;100.00
18509;BME280;9383;50.928;12.116;2023-01-25T07:00:58;100599.72;;;-0.57;100.00
18509;BME280;9383;50.928;12.116;2023-01-25T07:03:24;100591.91;;;-0.57;100.00
18509;BME280;9383;50.928;12.116;2023-01-25T07:05:55;100598.03;;;-0.57;100.00
18509;BME280;9383;50.928;12.116;2023-01-25T07:08:22;100598.06;;;-0.55;100.00
18509;BME280;9383;50.928;12.116;2023-01-25T07:11:01;100597.22;;;-0.54;100.00
18509;BME280;9383;50.928;12.116;2023-01-25T07:13:29;100599.00;;;-0.53;100.00
18509;BME280;9383;50.928;12.116;2023-01-25T07:16:01;100595.56;;;-0.52;100.00
18509;BME280;9383;50.928;12.116;2023-01-25T07:18:30;100593.94;;;-0.50;100.00
18509;BME280;9383;50.928;12.116;2023-01-25T07:21:05;100595.75;;;-0.47;100.00
18509;BME280;9383;50.928;12.116;2023-01-25T07:23:32;100590.50;;;-0.49;100.00
18509;BME280;9383;50.928;12.116;2023-01-25T07:26:00;100596.53;;;-0.50;100.00
18509;BME280;9383;50.928;12.116;2023-01-25T07:28:27;100592.19;;;-0.49;100.00
18509;BME280;9383;50.928;12.116;2023-01-25T07:30:54;100599.25;;;-0.47;100.00
18509;BME280;9383;50.928;12.116;2023-01-25T07:33:20;100593.13;;;-0.47;100.00
18509;BME280;9383;50.928;12.116;2023-01-25T07:35:47;100580.19;;;-0.46;100.00
18509;BME280;9383;50.928;12.116;2023-01-25T07:38:16;100581.00;;;-0.47;100.00
18509;BME280;9383;50.928;12.116;2023-01-25T07:40:43;100578.41;;;-0.47;100.00
18509;BME280;9383;50.928;12.116;2023-01-25T07:43:09;100579.28;;;-0.46;100.00
18509;BME280;9383;50.928;12.116;2023-01-25T07:45:36;100568.84;;;-0.46;100.00
18509;BME280;9383;50.928;12.116;2023-01-25T07:48:07;100564.47;;;-0.47;100.00
18509;BME280;9383;50.928;12.116;2023-01-25T07:50:35;100564.44;;;-0.49;100.00
18509;BME280;9383;50.928;12.116;2023-01-25T07:53:02;100555.78;;;-0.48;100.00
18509;BME280;9383;50.928;12.116;2023-01-25T07:55:28;100552.34;;;-0.47;100.00
18509;BME280;9383;50.928;12.116;2023-01-25T07:57:55;100562.88;;;-0.44;100.00
18509;BME280;9383;50.928;12.116;2023-01-25T08:00:22;100556.00;;;-0.41;100.00
18509;BME280;9383;50.928;12.116;2023-01-25T08:02:52;100560.38;;;-0.40;100.00
18509;BME280;9383;50.928;12.116;2023-01-25T08:05:19;100550.84;;;-0.40;100.00
18509;BME280;9383;50.928;12.116;2023-01-25T08:07:46;100561.22;;;-0.41;100.00
18509;BME280;9383;50.928;12.116;2023-01-25T08:10:14;100545.56;;;-0.41;100.00
18509;BME280;9383;50.928;12.116;2023-01-25T08:12:44;100553.47;;;-0.40;100.00
18509;BME280;9383;50.928;12.116;2023-01-25T08:15:12;100554.41;;;-0.38;100.00
18509;BME280;9383;50.928;12.116;2023-01-25T08:17:39;100546.66;;;-0.36;100.00
18509;BME280;9383;50.928;12.116;2023-01-25T08:20:07;100531.94;;;-0.34;100.00
18509;BME280;9383;50.928;12.116;2023-01-25T08:22:34;100535.50;;;-0.32;100.00
18509;BME280;9383;50.928;12.116;2023-01-25T08:25:02;100529.50;;;-0.30;100.00
18509;BME280;9383;50.928;12.116;2023-01-25T08:27:29;100527.00;;;-0.26;100.00
18509;BME280;9383;50.928;12.116;2023-01-25T08:29:55;100529.59;;;-0.26;100.00
18509;BME280;9383;50.928;12.116;2023-01-25T08:32:22;100515.63;;;-0.29;100.00
18509;BME280;9383;50.928;12.116;2023-01-25T08:34:49;100516.47;;;-0.30;100.00
18509;BME280;9383;50.928;12.116;2023-01-25T08:37:15;100511.94;;;-0.35;100.00
18509;BME280;9383;50.928;12.116;2023-01-25T08:39:43;100507.66;;;-0.33;100.00
18509;BME280;9383;50.928;12.116;2023-01-25T08:42:09;100516.50;;;-0.28;100.00
18509;BME280;9383;50.928;12.116;2023-01-25T08:44:36;100510.47;;;-0.27;100.00
18509;BME280;9383;50.928;12.116;2023-01-25T08:47:02;100504.41;;;-0.26;100.00
18509;BME280;9383;50.928;12.116;2023-01-25T08:49:29;100500.25;;;-0.21;100.00
18509;BME280;9383;50.928;12.116;2023-01-25T08:51:56;100495.97;;;-0.19;100.00
18509;BME280;9383;50.928;12.116;2023-01-25T08:54:23;100495.16;;;-0.18;100.00
18509;BME280;9383;50.928;12.116;2023-01-25T08:56:50;100492.75;;;-0.11;100.00
18509;BME280;9383;50.928;12.116;2023-01-25T08:59:16;100489.34;;;-0.09;100.00
18509;BME280;9383;50.928;12.116;2023-01-25T09:01:43;100494.63;;;-0.07;100.00
18509;BME280;9383;50.928;12.116;2023-01-25T09:04:09;100493.84;;;-0.05;100.00
18509;BME280;9383;50.928;12.116;2023-01-25T09:06:35;100499.91;;;-0.06;100.00
18509;BME280;9383;50.928;12.116;2023-01-25T09:09:02;100494.78;;;-0.03;100.00
18509;BME280;9383;50.928;12.116;2023-01-25T09:11:31;100494.97;;;0.04;100.00
18509;BME280;9383;50.928;12.116;2023-01-25T09:13:58;100495.13;;;0.08;100.00
18509;BME280;9383;50.928;12.116;2023-01-25T09:16:25;100490.81;;;0.09;100.00
18509;BME280;9383;50.928;12.116;2023-01-25T09:19:00;100486.56;;;0.12;100.00
18509;BME280;9383;50.928;12.116;2023-01-25T09:21:28;100478.09;;;0.20;100.00
18509;BME280;9383;50.928;12.116;2023-01-25T09:23:55;100489.47;;;0.22;100.00
18509;BME280;9383;50.928;12.116;2023-01-25T09:26:21;100489.22;;;0.14;100.00
18509;BME280;9383;50.928;12.116;2023-01-25T09:28:50;100486.78;;;0.19;100.00
18509;BME280;9383;50.928;12.116;2023-01-25T09:31:17;100491.16;;;0.20;100.00
18509;BME280;9383;50.928;12.116;2023-01-25T09:33:44;100492.09;;;0.22;100.00
18509;BME280;9383;50.928;12.116;2023-01-25T09:36:11;100491.47;;;0.29;100.00
18509;BME280;9383;50.928;12.116;2023-01-25T09:38:38;100493.97;;;0.26;100.00
18509;BME280;9383;50.928;12.116;2023-01-25T09:43:55;100492.47;;;0.34;100.00
18509;BME280;9383;50.928;12.116;2023-01-25T09:46:40;100479.34;;;0.31;100.00
18509;BME280;9383;50.928;12.116;2023-01-25T09:54:55;100480.47;;;0.39;100.00
18509;BME280;9383;50.928;12.116;2023-01-25T09:57:30;100480.41;;;0.38;100.00
18509;BME280;9383;50.928;12.116;2023-01-25T10:00:00;100468.28;;;0.38;100.00
18509;BME280;9383;50.928;12.116;2023-01-25T10:05:20;100465.22;;;0.52;100.00
18509;BME280;9383;50.928;12.116;2023-01-25T10:07:59;100467.94;;;0.56;100.00
18509;BME280;9383;50.928;12.116;2023-01-25T10:10:37;100462.00;;;0.62;100.00
18509;BME280;9383;50.928;12.116;2023-01-25T10:13:07;100461.38;;;0.69;100.00
18509;BME280;9383;50.928;12.116;2023-01-25T10:15:48;100460.72;;;0.77;100.00
18509;BME280;9383;50.928;12.116;2023-01-25T10:18:18;100460.97;;;0.86;100.00
18509;BME280;9383;50.928;12.116;2023-01-25T10:20:54;100462.94;;;0.93;100.00
18509;BME280;9383;50.928;12.116;2023-01-25T10:26:45;100447.28;;;0.93;100.00
18509;BME280;9383;50.928;12.116;2023-01-25T10:29:19;100446.50;;;0.97;100.00
18509;BME280;9383;50.928;12.116;2023-01-25T10:31:50;100440.56;;;1.02;100.00
18509;BME280;9383;50.928;12.116;2023-01-25T10:34:21;100437.03;;;1.01;100.00
18509;BME280;9383;50.928;12.116;2023-01-25T10:37:14;100430.19;;;1.05;100.00
18509;BME280;9383;50.928;12.116;2023-01-25T10:39:52;100424.91;;;1.03;100.00
18509;BME280;9383;50.928;12.116;2023-01-25T10:42:25;100427.72;;;1.11;100.00
18509;BME280;9383;50.928;12.116;2023-01-25T10:44:55;100412.16;;;1.14;100.00
18509;BME280;9383;50.928;12.116;2023-01-25T10:47:34;100403.47;;;1.15;100.00
18509;BME280;9383;50.928;12.116;2023-01-25T10:50:05;100405.13;;;1.11;100.00
18509;BME280;9383;50.928;12.116;2023-01-25T10:52:32;100400.63;;;1.07;100.00
18509;BME280;9383;50.928;12.116;2023-01-25T10:55:20;100391.25;;;1.14;100.00
18509;BME280;9383;50.928;12.116;2023-01-25T10:57:54;100388.41;;;1.06;100.00
18509;BME280;9383;50.928;12.116;2023-01-25T11:00:27;100379.66;;;1.04;100.00
18509;BME280;9383;50.928;12.116;2023-01-25T11:02:55;100384.94;;;1.06;100.00
18509;BME280;9383;50.928;12.116;2023-01-25T11:07:57;100369.13;;;1.01;100.00
18509;BME280;9383;50.928;12.116;2023-01-25T11:10:31;100370.13;;;1.06;100.00
18509;BME280;9383;50.928;12.116;2023-01-25T11:18:53;100367.50;;;1.05;100.00
18509;BME280;9383;50.928;12.116;2023-01-25T11:21:28;100362.22;;;1.02;100.00
18509;BME280;9383;50.928;12.116;2023-01-25T11:26:36;100360.84;;;0.84;98.95
18509;BME280;9383;50.928;12.116;2023-01-25T11:29:20;100359.06;;;0.83;98.99
18509;BME280;9383;50.928;12.116;2023-01-25T11:31:53;100352.09;;;0.82;98.57
18509;BME280;9383;50.928;12.116;2023-01-25T11:34:27;100350.31;;;0.81;98.22
18509;BME280;9383;50.928;12.116;2023-01-25T11:37:07;100347.78;;;0.84;98.60
18509;BME280;9383;50.928;12.116;2023-01-25T11:48:23;100327.41;;;1.03;99.62
18509;BME280;9383;50.928;12.116;2023-01-25T11:51:11;100322.13;;;1.01;99.51
18509;BME280;9383;50.928;12.116;2023-01-25T11:53:51;100316.00;;;1.01;99.60
18509;BME280;9383;50.928;12.116;2023-01-25T11:59:16;100300.53;;;1.07;99.64
18509;BME280;9383;50.928;12.116;2023-01-25T12:07:56;100288.97;;;0.98;98.16
18509;BME280;9383;50.928;12.116;2023-01-25T12:16:18;100269.53;;;0.87;97.59
18509;BME280;9383;50.928;12.116;2023-01-25T12:19:12;100265.09;;;0.83;97.68
18509;BME280;9383;50.928;12.116;2023-01-25T12:21:58;100262.28;;;0.75;97.98
18509;BME280;9383;50.928;12.116;2023-01-25T12:27:25;100265.56;;;0.68;98.83
18509;BME280;9383;50.928;12.116;2023-01-25T12:32:45;100244.66;;;0.66;99.04
18509;BME280;9383;50.928;12.116;2023-01-25T12:35:32;100241.06;;;0.63;99.94
18509;BME280;9383;50.928;12.116;2023-01-25T12:38:12;100227.19;;;0.64;99.60
18509;BME280;9383;50.928;12.116;2023-01-25T12:40:55;100222.53;;;0.52;100.00
18509;BME280;9383;50.928;12.116;2023-01-25T12:43:32;100217.47;;;0.58;100.00
18509;BME280;9383;50.928;12.116;2023-01-25T12:46:13;100211.38;;;0.58;100.00
18509;BME280;9383;50.928;12.116;2023-01-25T12:48:45;100205.38;;;0.62;100.00
18509;BME280;9383;50.928;12.116;2023-01-25T12:51:15;100214.00;;;0.59;100.00
18509;BME280;9383;50.928;12.116;2023-01-25T12:53:46;100210.66;;;0.63;100.00
18509;BME280;9383;50.928;12.116;2023-01-25T12:58:55;100198.34;;;0.59;100.00
18509;BME280;9383;50.928;12.116;2023-01-25T13:01:45;100200.97;;;0.59;100.00
18509;BME280;9383;50.928;12.116;2023-01-25T13:07:17;100192.41;;;0.63;100.00
18509;BME280;9383;50.928;12.116;2023-01-25T13:10:13;100188.84;;;0.61;100.00
18509;BME280;9383;50.928;12.116;2023-01-25T13:12:55;100186.94;;;0.54;100.00
18509;BME280;9383;50.928;12.116;2023-01-25T13:15:37;100185.72;;;0.41;99.68
18509;BME280;9383;50.928;12.116;2023-01-25T13:20:58;100177.59;;;0.30;100.00
18509;BME280;9383;50.928;12.116;2023-01-25T13:23:42;100172.59;;;0.38;100.00
18509;BME280;9383;50.928;12.116;2023-01-25T13:28:51;100156.28;;;0.45;100.00
18509;BME280;9383;50.928;12.116;2023-01-25T13:42:02;100138.81;;;0.78;100.00
18509;BME280;9383;50.928;12.116;2023-01-25T13:47:19;100125.16;;;0.90;100.00
18509;BME280;9383;50.928;12.116;2023-01-25T13:52:26;100111.41;;;0.98;100.00
18509;BME280;9383;50.928;12.116;2023-01-25T13:54:57;100112.38;;;1.02;100.00
18509;BME280;9383;50.928;12.116;2023-01-25T13:57:29;100113.34;;;1.06;100.00
18509;BME280;9383;50.928;12.116;2023-01-25T14:00:01;100104.72;;;1.10;100.00
18509;BME280;9383;50.928;12.116;2023-01-25T14:02:29;100108.34;;;1.15;100.00
18509;BME280;9383;50.928;12.116;2023-01-25T14:04:56;100093.50;;;1.14;100.00
18509;BME280;9383;50.928;12.116;2023-01-25T14:07:30;100090.97;;;1.17;100.00
18509;BME280;9383;50.928;12.116;2023-01-25T14:10:01;100082.22;;;1.17;100.00
18509;BME280;9383;50.928;12.116;2023-01-25T14:12:40;100084.84;;;1.17;99.92
18509;BME280;9383;50.928;12.116;2023-01-25T14:17:44;100083.97;;;1.18;99.60
18509;BME280;9383;50.928;12.116;2023-01-25T14:20:21;100086.31;;;1.05;98.51
18509;BME280;9383;50.928;12.116;2023-01-25T14:22:49;100076.78;;;1.06;98.42
18509;BME280;9383;50.928;12.116;2023-01-25T14:25:20;100078.47;;;1.04;98.73
18509;BME280;9383;50.928;12.116;2023-01-25T14:27:49;100072.41;;;1.06;99.37
18509;BME280;9383;50.928;12.116;2023-01-25T14:30:21;100066.38;;;1.09;99.54
18509;BME280;9383;50.928;12.116;2023-01-25T14:32:50;100067.19;;;1.06;99.31